sensor_id;sensor_type;location;lat;lon;timestamp;P1;durP1;ratioP1;P2;durP2;ratioP2
60336;SDS011;46978;50.288;28.624;2023-02-28T00:00:28;8.22;;;5.05;;
60336;SDS011;46978;50.288;28.624;2023-02-28T00:01:30;9.91;;;5.86;;
60336;SDS011;46978;50.288;28.624;2023-02-28T00:02:32;9.50;;;5.04;;
60336;SDS011;46978;50.288;28.624;2023-02-28T00:03:33;12.20;;;7.37;;
60336;SDS011;46978;50.288;28.624;2023-02-28T00:04:35;12.82;;;8.07;;
60336;SDS011;46978;50.288;28.624;2023-02-28T00:05:37;13.16;;;7.35;;
60336;SDS011;46978;50.288;28.624;2023-02-28T00:06:39;12.03;;;7.52;;
60336;SDS011;46978;50.288;28.624;2023-02-28T00:07:40;8.84;;;5.57;;
60336;SDS011;46978;50.288;28.624;2023-02-28T00:08:42;12.17;;;6.74;;
60336;SDS011;46978;50.288;28.624;2023-02-28T00:09:45;11.25;;;6.26;;
60336;SDS011;46978;50.288;28.624;2023-02-28T00:10:46;10.16;;;4.83;;
60336;SDS011;46978;50.288;28.624;2023-02-28T00:11:48;9.86;;;5.13;;
60336;SDS011;46978;50.288;28.624;2023-02-28T00:12:50;11.20;;;5.96;;
60336;SDS011;46978;50.288;28.624;2023-02-28T00:13:53;12.67;;;6.67;;
60336;SDS011;46978;50.288;28.624;2023-02-28T00:14:55;10.60;;;5.73;;
60336;SDS011;46978;50.288;28.624;2023-02-28T00:16:00;12.32;;;6.34;;
60336;SDS011;46978;50.288;28.624;2023-02-28T00:17:04;9.24;;;5.33;;
60336;SDS011;46978;50.288;28.624;2023-02-28T00:18:05;6.68;;;4.34;;
60336;SDS011;46978;50.288;28.624;2023-02-28T00:19:07;8.06;;;5.16;;
60336;SDS011;46978;50.288;28.624;2023-02-28T00:20:09;9.24;;;4.91;;
60336;SDS011;46978;50.288;28.624;2023-02-28T00:21:12;11.55;;;5.47;;
60336;SDS011;46978;50.288;28.624;2023-02-28T00:22:19;12.31;;;5.81;;
60336;SDS011;46978;50.288;28.624;2023-02-28T00:23:19;6.01;;;4.22;;
60336;SDS011;46978;50.288;28.624;2023-02-28T00:24:21;10.30;;;5.37;;
60336;SDS011;46978;50.288;28.624;2023-02-28T00:25:24;9.87;;;5.14;;
60336;SDS011;46978;50.288;28.624;2023-02-28T00:26:26;9.13;;;4.97;;
60336;SDS011;46978;50.288;28.624;2023-02-28T00:27:28;9.34;;;4.54;;
60336;SDS011;46978;50.288;28.624;2023-02-28T00:28:29;10.95;;;5.96;;
60336;SDS011;46978;50.288;28.624;2023-02-28T00:29:31;10.19;;;5.94;;
60336;SDS011;46978;50.288;28.624;2023-02-28T00:30:33;8.53;;;5.13;;
60336;SDS011;46978;50.288;28.624;2023-02-28T00:31:34;10.00;;;5.29;;
60336;SDS011;46978;50.288;28.624;2023-02-28T00:32:36;11.33;;;5.51;;
60336;SDS011;46978;50.288;28.624;2023-02-28T00:33:39;10.51;;;5.01;;
60336;SDS011;46978;50.288;28.624;2023-02-28T00:34:40;10.86;;;5.39;;
60336;SDS011;46978;50.288;28.624;2023-02-28T00:35:42;8.93;;;5.19;;
60336;SDS011;46978;50.288;28.624;2023-02-28T00:36:44;7.77;;;4.18;;
60336;SDS011;46978;50.288;28.624;2023-02-28T00:37:47;8.11;;;4.30;;
60336;SDS011;46978;50.288;28.624;2023-02-28T00:38:49;7.19;;;3.87;;
60336;SDS011;46978;50.288;28.624;2023-02-28T00:39:51;8.67;;;4.05;;
60336;SDS011;46978;50.288;28.624;2023-02-28T00:40:53;7.17;;;4.02;;
60336;SDS011;46978;50.288;28.624;2023-02-28T00:41:54;8.36;;;3.96;;
60336;SDS011;46978;50.288;28.624;2023-02-28T00:42:56;8.14;;;4.21;;
60336;SDS011;46978;50.288;28.624;2023-02-28T00:43:57;8.00;;;4.26;;
60336;SDS011;46978;50.288;28.624;2023-02-28T00:44:59;9.06;;;4.82;;
60336;SDS011;46978;50.288;28.624;2023-02-28T00:46:01;8.99;;;4.52;;
60336;SDS011;46978;50.288;28.624;2023-02-28T00:47:04;9.73;;;4.62;;
60336;SDS011;46978;50.288;28.624;2023-02-28T00:48:06;11.09;;;5.43;;
60336;SDS011;46978;50.288;28.624;2023-02-28T00:49:07;7.47;;;4.51;;
60336;SDS011;46978;50.288;28.624;2023-02-28T00:50:11;9.27;;;4.76;;
60336;SDS011;46978;50.288;28.624;2023-02-28T00:51:12;9.48;;;5.09;;
60336;SDS011;46978;50.288;28.624;2023-02-28T00:52:14;10.22;;;4.76;;
60336;SDS011;46978;50.288;28.624;2023-02-28T00:53:16;11.54;;;5.89;;
60336;SDS011;46978;50.288;28.624;2023-02-28T00:54:18;11.97;;;6.25;;
60336;SDS011;46978;50.288;28.624;2023-02-28T00:55:19;10.37;;;5.10;;
60336;SDS011;46978;50.288;28.624;2023-02-28T00:56:21;11.57;;;5.95;;
60336;SDS011;46978;50.288;28.624;2023-02-28T00:57:22;10.08;;;5.74;;
60336;SDS011;46978;50.288;28.624;2023-02-28T00:58:24;11.19;;;5.74;;
60336;SDS011;46978;50.288;28.624;2023-02-28T00:59:26;10.66;;;5.54;;
60336;SDS011;46978;50.288;28.624;2023-02-28T01:00:28;12.07;;;5.54;;
60336;SDS011;46978;50.288;28.624;2023-02-28T01:01:29;9.77;;;4.98;;
60336;SDS011;46978;50.288;28.624;2023-02-28T01:02:31;9.88;;;5.21;;
60336;SDS011;46978;50.288;28.624;2023-02-28T01:03:32;9.94;;;5.76;;
60336;SDS011;46978;50.288;28.624;2023-02-28T01:04:34;11.75;;;6.31;;
60336;SDS011;46978;50.288;28.624;2023-02-28T01:05:36;11.76;;;6.37;;
60336;SDS011;46978;50.288;28.624;2023-02-28T01:06:38;12.90;;;6.86;;
60336;SDS011;46978;50.288;28.624;2023-02-28T01:07:40;12.33;;;6.22;;
60336;SDS011;46978;50.288;28.624;2023-02-28T01:08:41;11.28;;;5.94;;
60336;SDS011;46978;50.288;28.624;2023-02-28T01:09:43;10.32;;;5.54;;
60336;SDS011;46978;50.288;28.624;2023-02-28T01:10:45;10.01;;;5.51;;
60336;SDS011;46978;50.288;28.624;2023-02-28T01:11:47;12.31;;;5.98;;
60336;SDS011;46978;50.288;28.624;2023-02-28T01:12:49;10.82;;;6.03;;
60336;SDS011;46978;50.288;28.624;2023-02-28T01:13:50;10.20;;;5.67;;
60336;SDS011;46978;50.288;28.624;2023-02-28T01:14:52;12.36;;;6.05;;
60336;SDS011;46978;50.288;28.624;2023-02-28T01:15:55;13.89;;;6.78;;
60336;SDS011;46978;50.288;28.624;2023-02-28T01:16:57;11.46;;;6.35;;
60336;SDS011;46978;50.288;28.624;2023-02-28T01:17:59;15.80;;;6.21;;
60336;SDS011;46978;50.288;28.624;2023-02-28T01:19:00;9.71;;;6.13;;
60336;SDS011;46978;50.288;28.624;2023-02-28T01:20:03;7.19;;;4.47;;
60336;SDS011;46978;50.288;28.624;2023-02-28T01:21:06;8.18;;;5.07;;
60336;SDS011;46978;50.288;28.624;2023-02-28T01:22:08;9.98;;;5.59;;
60336;SDS011;46978;50.288;28.624;2023-02-28T01:23:10;10.51;;;5.03;;
60336;SDS011;46978;50.288;28.624;2023-02-28T01:24:12;8.59;;;4.64;;
60336;SDS011;46978;50.288;28.624;2023-02-28T01:25:14;8.79;;;4.77;;
60336;SDS011;46978;50.288;28.624;2023-02-28T01:26:19;9.49;;;5.25;;
60336;SDS011;46978;50.288;28.624;2023-02-28T01:27:22;9.54;;;5.16;;
60336;SDS011;46978;50.288;28.624;2023-02-28T01:28:24;7.79;;;4.64;;
60336;SDS011;46978;50.288;28.624;2023-02-28T01:29:25;8.87;;;4.95;;
60336;SDS011;46978;50.288;28.624;2023-02-28T01:30:27;8.43;;;5.10;;
60336;SDS011;46978;50.288;28.624;2023-02-28T01:31:29;9.53;;;5.41;;
60336;SDS011;46978;50.288;28.624;2023-02-28T01:32:31;9.53;;;5.34;;
60336;SDS011;46978;50.288;28.624;2023-02-28T01:33:33;9.58;;;5.64;;
60336;SDS011;46978;50.288;28.624;2023-02-28T01:34:35;10.87;;;5.74;;
60336;SDS011;46978;50.288;28.624;2023-02-28T01:35:37;11.33;;;5.46;;
60336;SDS011;46978;50.288;28.624;2023-02-28T01:36:39;13.23;;;6.28;;
60336;SDS011;46978;50.288;28.624;2023-02-28T01:37:40;14.08;;;6.46;;
60336;SDS011;46978;50.288;28.624;2023-02-28T01:38:42;12.51;;;6.20;;
60336;SDS011;46978;50.288;28.624;2023-02-28T01:39:44;11.97;;;6.40;;
60336;SDS011;46978;50.288;28.624;2023-02-28T01:40:46;10.31;;;5.97;;
60336;SDS011;46978;50.288;28.624;2023-02-28T01:41:47;11.79;;;5.67;;
60336;SDS011;46978;50.288;28.624;2023-02-28T01:42:49;12.40;;;6.51;;
60336;SDS011;46978;50.288;28.624;2023-02-28T01:43:55;12.32;;;7.10;;
60336;SDS011;46978;50.288;28.624;2023-02-28T01:46:20;10.16;;;5.97;;
60336;SDS011;46978;50.288;28.624;2023-02-28T01:47:22;13.61;;;6.81;;
60336;SDS011;46978;50.288;28.624;2023-02-28T01:48:34;13.47;;;7.31;;
60336;SDS011;46978;50.288;28.624;2023-02-28T01:49:38;13.71;;;6.00;;
60336;SDS011;46978;50.288;28.624;2023-02-28T01:50:41;13.77;;;6.59;;
60336;SDS011;46978;50.288;28.624;2023-02-28T01:51:49;14.60;;;6.94;;
60336;SDS011;46978;50.288;28.624;2023-02-28T01:52:54;13.06;;;6.76;;
60336;SDS011;46978;50.288;28.624;2023-02-28T01:53:59;11.46;;;6.13;;
60336;SDS011;46978;50.288;28.624;2023-02-28T01:55:04;10.07;;;6.04;;
60336;SDS011;46978;50.288;28.624;2023-02-28T01:56:08;11.32;;;5.42;;
60336;SDS011;46978;50.288;28.624;2023-02-28T01:57:13;11.67;;;5.64;;
60336;SDS011;46978;50.288;28.624;2023-02-28T01:58:17;11.24;;;5.98;;
60336;SDS011;46978;50.288;28.624;2023-02-28T01:59:24;8.97;;;5.42;;
60336;SDS011;46978;50.288;28.624;2023-02-28T02:00:28;10.50;;;5.28;;
60336;SDS011;46978;50.288;28.624;2023-02-28T02:01:31;9.86;;;5.37;;
60336;SDS011;46978;50.288;28.624;2023-02-28T02:02:32;11.33;;;5.61;;
60336;SDS011;46978;50.288;28.624;2023-02-28T02:03:34;9.52;;;5.41;;
60336;SDS011;46978;50.288;28.624;2023-02-28T02:04:37;10.45;;;5.93;;
60336;SDS011;46978;50.288;28.624;2023-02-28T02:05:42;8.27;;;4.99;;
60336;SDS011;46978;50.288;28.624;2023-02-28T02:06:44;10.39;;;5.26;;
60336;SDS011;46978;50.288;28.624;2023-02-28T02:07:50;11.11;;;5.20;;
60336;SDS011;46978;50.288;28.624;2023-02-28T02:08:54;9.22;;;4.85;;
60336;SDS011;46978;50.288;28.624;2023-02-28T02:09:59;10.86;;;5.99;;
60336;SDS011;46978;50.288;28.624;2023-02-28T02:11:03;9.49;;;5.23;;
60336;SDS011;46978;50.288;28.624;2023-02-28T02:12:20;11.29;;;5.75;;
60336;SDS011;46978;50.288;28.624;2023-02-28T02:13:34;10.30;;;5.57;;
60336;SDS011;46978;50.288;28.624;2023-02-28T02:14:43;13.88;;;6.10;;
60336;SDS011;46978;50.288;28.624;2023-02-28T02:16:01;16.02;;;6.51;;
60336;SDS011;46978;50.288;28.624;2023-02-28T02:17:25;13.96;;;7.05;;
60336;SDS011;46978;50.288;28.624;2023-02-28T02:22:31;18.57;;;7.77;;
60336;SDS011;46978;50.288;28.624;2023-02-28T02:24:38;15.60;;;7.84;;
60336;SDS011;46978;50.288;28.624;2023-02-28T02:27:59;12.04;;;6.12;;
60336;SDS011;46978;50.288;28.624;2023-02-28T02:35:12;10.11;;;5.46;;
60336;SDS011;46978;50.288;28.624;2023-02-28T02:36:42;13.03;;;6.15;;
60336;SDS011;46978;50.288;28.624;2023-02-28T02:39:06;13.09;;;6.49;;
60336;SDS011;46978;50.288;28.624;2023-02-28T02:40:20;15.13;;;7.86;;
60336;SDS011;46978;50.288;28.624;2023-02-28T02:41:31;16.81;;;8.64;;
60336;SDS011;46978;50.288;28.624;2023-02-28T02:45:00;21.13;;;10.24;;
60336;SDS011;46978;50.288;28.624;2023-02-28T02:46:05;22.92;;;10.53;;
60336;SDS011;46978;50.288;28.624;2023-02-28T02:47:13;18.66;;;9.33;;
60336;SDS011;46978;50.288;28.624;2023-02-28T02:48:21;18.13;;;8.64;;
60336;SDS011;46978;50.288;28.624;2023-02-28T02:49:27;16.28;;;8.37;;
60336;SDS011;46978;50.288;28.624;2023-02-28T02:50:34;15.48;;;8.26;;
60336;SDS011;46978;50.288;28.624;2023-02-28T02:51:36;16.49;;;8.52;;
60336;SDS011;46978;50.288;28.624;2023-02-28T02:52:43;14.83;;;8.21;;
60336;SDS011;46978;50.288;28.624;2023-02-28T02:54:02;12.99;;;7.28;;
60336;SDS011;46978;50.288;28.624;2023-02-28T02:55:01;12.87;;;6.95;;
60336;SDS011;46978;50.288;28.624;2023-02-28T02:56:05;11.22;;;7.01;;
60336;SDS011;46978;50.288;28.624;2023-02-28T02:57:21;12.99;;;7.77;;
60336;SDS011;46978;50.288;28.624;2023-02-28T02:58:24;9.92;;;5.99;;
60336;SDS011;46978;50.288;28.624;2023-02-28T02:59:28;11.96;;;6.40;;
60336;SDS011;46978;50.288;28.624;2023-02-28T03:00:35;10.64;;;6.22;;
60336;SDS011;46978;50.288;28.624;2023-02-28T03:01:39;11.60;;;6.38;;
60336;SDS011;46978;50.288;28.624;2023-02-28T03:02:42;11.67;;;6.65;;
60336;SDS011;46978;50.288;28.624;2023-02-28T03:03:46;10.98;;;6.08;;
60336;SDS011;46978;50.288;28.624;2023-02-28T03:04:51;9.69;;;5.50;;
60336;SDS011;46978;50.288;28.624;2023-02-28T03:05:54;8.59;;;5.42;;
60336;SDS011;46978;50.288;28.624;2023-02-28T03:06:57;10.49;;;5.75;;
60336;SDS011;46978;50.288;28.624;2023-02-28T03:07:59;9.85;;;6.06;;
60336;SDS011;46978;50.288;28.624;2023-02-28T03:09:06;9.76;;;6.02;;
60336;SDS011;46978;50.288;28.624;2023-02-28T03:11:34;9.33;;;5.49;;
60336;SDS011;46978;50.288;28.624;2023-02-28T03:12:42;9.04;;;5.28;;
60336;SDS011;46978;50.288;28.624;2023-02-28T03:13:58;9.43;;;5.48;;
60336;SDS011;46978;50.288;28.624;2023-02-28T03:17:31;10.14;;;5.18;;
60336;SDS011;46978;50.288;28.624;2023-02-28T03:20:27;8.09;;;4.48;;
60336;SDS011;46978;50.288;28.624;2023-02-28T03:23:13;9.82;;;5.02;;
60336;SDS011;46978;50.288;28.624;2023-02-28T03:26:54;8.72;;;4.98;;
60336;SDS011;46978;50.288;28.624;2023-02-28T03:29:28;11.53;;;6.03;;
60336;SDS011;46978;50.288;28.624;2023-02-28T03:30:36;13.06;;;6.15;;
60336;SDS011;46978;50.288;28.624;2023-02-28T03:31:58;10.86;;;6.29;;
60336;SDS011;46978;50.288;28.624;2023-02-28T03:33:05;13.46;;;7.15;;
60336;SDS011;46978;50.288;28.624;2023-02-28T03:34:19;13.62;;;6.98;;
60336;SDS011;46978;50.288;28.624;2023-02-28T03:35:26;13.50;;;7.17;;
60336;SDS011;46978;50.288;28.624;2023-02-28T03:36:32;19.30;;;8.53;;
60336;SDS011;46978;50.288;28.624;2023-02-28T03:37:37;17.19;;;9.04;;
60336;SDS011;46978;50.288;28.624;2023-02-28T03:39:57;18.99;;;9.14;;
60336;SDS011;46978;50.288;28.624;2023-02-28T03:42:21;14.76;;;8.07;;
60336;SDS011;46978;50.288;28.624;2023-02-28T03:43:30;17.07;;;8.32;;
60336;SDS011;46978;50.288;28.624;2023-02-28T03:44:38;29.29;;;13.26;;
60336;SDS011;46978;50.288;28.624;2023-02-28T03:45:42;28.65;;;13.27;;
60336;SDS011;46978;50.288;28.624;2023-02-28T03:46:48;28.68;;;13.94;;
60336;SDS011;46978;50.288;28.624;2023-02-28T03:49:00;23.60;;;13.08;;
60336;SDS011;46978;50.288;28.624;2023-02-28T03:51:19;27.33;;;13.37;;
60336;SDS011;46978;50.288;28.624;2023-02-28T03:52:20;27.01;;;12.93;;
60336;SDS011;46978;50.288;28.624;2023-02-28T03:53:27;22.90;;;12.91;;
60336;SDS011;46978;50.288;28.624;2023-02-28T03:54:44;24.29;;;13.46;;
60336;SDS011;46978;50.288;28.624;2023-02-28T03:55:48;29.47;;;13.51;;
60336;SDS011;46978;50.288;28.624;2023-02-28T03:56:59;27.61;;;13.72;;
60336;SDS011;46978;50.288;28.624;2023-02-28T03:58:15;29.03;;;13.70;;
60336;SDS011;46978;50.288;28.624;2023-02-28T03:59:32;28.34;;;13.82;;
60336;SDS011;46978;50.288;28.624;2023-02-28T04:00:40;33.29;;;15.42;;
60336;SDS011;46978;50.288;28.624;2023-02-28T04:01:41;30.34;;;15.19;;
60336;SDS011;46978;50.288;28.624;2023-02-28T04:02:45;39.66;;;18.41;;
60336;SDS011;46978;50.288;28.624;2023-02-28T04:03:47;32.84;;;16.22;;
60336;SDS011;46978;50.288;28.624;2023-02-28T04:04:50;26.20;;;12.88;;
60336;SDS011;46978;50.288;28.624;2023-02-28T04:05:52;21.21;;;11.74;;
60336;SDS011;46978;50.288;28.624;2023-02-28T04:07:05;60.70;;;25.64;;
60336;SDS011;46978;50.288;28.624;2023-02-28T04:08:09;62.33;;;31.38;;
60336;SDS011;46978;50.288;28.624;2023-02-28T04:09:12;53.50;;;25.47;;
60336;SDS011;46978;50.288;28.624;2023-02-28T04:10:15;87.91;;;45.63;;
60336;SDS011;46978;50.288;28.624;2023-02-28T04:11:23;60.59;;;32.14;;
60336;SDS011;46978;50.288;28.624;2023-02-28T04:12:23;22.29;;;11.31;;
60336;SDS011;46978;50.288;28.624;2023-02-28T04:13:25;132.76;;;55.80;;
60336;SDS011;46978;50.288;28.624;2023-02-28T04:14:27;284.14;;;107.07;;
60336;SDS011;46978;50.288;28.624;2023-02-28T04:15:28;379.98;;;147.30;;
60336;SDS011;46978;50.288;28.624;2023-02-28T04:16:30;383.29;;;156.09;;
60336;SDS011;46978;50.288;28.624;2023-02-28T04:17:33;379.02;;;157.57;;
60336;SDS011;46978;50.288;28.624;2023-02-28T04:18:34;203.27;;;82.54;;
60336;SDS011;46978;50.288;28.624;2023-02-28T04:19:36;99.62;;;44.37;;
60336;SDS011;46978;50.288;28.624;2023-02-28T04:20:38;207.07;;;85.17;;
60336;SDS011;46978;50.288;28.624;2023-02-28T04:21:47;181.93;;;86.05;;
60336;SDS011;46978;50.288;28.624;2023-02-28T04:22:46;135.10;;;60.08;;
60336;SDS011;46978;50.288;28.624;2023-02-28T04:23:48;90.79;;;46.11;;
60336;SDS011;46978;50.288;28.624;2023-02-28T04:24:49;71.49;;;36.30;;
60336;SDS011;46978;50.288;28.624;2023-02-28T04:25:54;61.91;;;29.18;;
60336;SDS011;46978;50.288;28.624;2023-02-28T04:26:57;58.94;;;27.79;;
60336;SDS011;46978;50.288;28.624;2023-02-28T04:27:59;33.07;;;17.19;;
60336;SDS011;46978;50.288;28.624;2023-02-28T04:29:01;35.11;;;20.57;;
60336;SDS011;46978;50.288;28.624;2023-02-28T04:30:04;38.39;;;22.23;;
60336;SDS011;46978;50.288;28.624;2023-02-28T04:31:06;33.85;;;20.46;;
60336;SDS011;46978;50.288;28.624;2023-02-28T04:32:08;33.35;;;17.94;;
60336;SDS011;46978;50.288;28.624;2023-02-28T04:33:09;31.96;;;18.66;;
60336;SDS011;46978;50.288;28.624;2023-02-28T04:34:11;36.06;;;20.70;;
60336;SDS011;46978;50.288;28.624;2023-02-28T04:35:13;38.40;;;19.85;;
60336;SDS011;46978;50.288;28.624;2023-02-28T04:36:15;35.89;;;18.93;;
60336;SDS011;46978;50.288;28.624;2023-02-28T04:37:16;69.53;;;43.68;;
60336;SDS011;46978;50.288;28.624;2023-02-28T04:38:18;40.11;;;23.06;;
60336;SDS011;46978;50.288;28.624;2023-02-28T04:39:20;45.09;;;21.26;;
60336;SDS011;46978;50.288;28.624;2023-02-28T04:40:24;43.03;;;20.71;;
60336;SDS011;46978;50.288;28.624;2023-02-28T04:41:25;44.42;;;20.22;;
60336;SDS011;46978;50.288;28.624;2023-02-28T04:42:27;49.19;;;22.86;;
60336;SDS011;46978;50.288;28.624;2023-02-28T04:43:29;45.71;;;21.94;;
60336;SDS011;46978;50.288;28.624;2023-02-28T04:44:31;47.66;;;25.99;;
60336;SDS011;46978;50.288;28.624;2023-02-28T04:45:33;53.62;;;24.85;;
60336;SDS011;46978;50.288;28.624;2023-02-28T04:46:36;46.16;;;21.94;;
60336;SDS011;46978;50.288;28.624;2023-02-28T04:47:38;46.69;;;21.79;;
60336;SDS011;46978;50.288;28.624;2023-02-28T04:48:39;45.82;;;21.28;;
60336;SDS011;46978;50.288;28.624;2023-02-28T04:49:41;36.77;;;18.21;;
60336;SDS011;46978;50.288;28.624;2023-02-28T04:50:43;32.27;;;15.65;;
60336;SDS011;46978;50.288;28.624;2023-02-28T04:51:44;25.39;;;13.10;;
60336;SDS011;46978;50.288;28.624;2023-02-28T04:52:46;17.69;;;9.93;;
60336;SDS011;46978;50.288;28.624;2023-02-28T04:53:48;19.25;;;11.05;;
60336;SDS011;46978;50.288;28.624;2023-02-28T04:54:50;17.61;;;9.57;;
60336;SDS011;46978;50.288;28.624;2023-02-28T04:55:51;21.31;;;10.86;;
60336;SDS011;46978;50.288;28.624;2023-02-28T04:56:53;16.26;;;8.97;;
60336;SDS011;46978;50.288;28.624;2023-02-28T04:57:54;17.86;;;9.84;;
60336;SDS011;46978;50.288;28.624;2023-02-28T04:58:56;16.51;;;9.69;;
60336;SDS011;46978;50.288;28.624;2023-02-28T04:59:57;14.14;;;7.66;;
60336;SDS011;46978;50.288;28.624;2023-02-28T05:01:03;10.97;;;7.28;;
60336;SDS011;46978;50.288;28.624;2023-02-28T05:02:06;11.61;;;6.97;;
60336;SDS011;46978;50.288;28.624;2023-02-28T05:03:08;13.22;;;7.51;;
60336;SDS011;46978;50.288;28.624;2023-02-28T05:04:09;11.56;;;7.01;;
60336;SDS011;46978;50.288;28.624;2023-02-28T05:05:11;11.19;;;6.28;;
60336;SDS011;46978;50.288;28.624;2023-02-28T05:06:13;9.61;;;5.98;;
60336;SDS011;46978;50.288;28.624;2023-02-28T05:07:15;12.33;;;6.51;;
60336;SDS011;46978;50.288;28.624;2023-02-28T05:08:17;11.31;;;5.83;;
60336;SDS011;46978;50.288;28.624;2023-02-28T05:09:19;9.22;;;5.76;;
60336;SDS011;46978;50.288;28.624;2023-02-28T05:10:21;10.66;;;6.20;;
60336;SDS011;46978;50.288;28.624;2023-02-28T05:11:25;10.20;;;6.02;;
60336;SDS011;46978;50.288;28.624;2023-02-28T05:12:29;10.88;;;6.01;;
60336;SDS011;46978;50.288;28.624;2023-02-28T05:13:30;12.31;;;6.99;;
60336;SDS011;46978;50.288;28.624;2023-02-28T05:14:32;12.11;;;6.99;;
60336;SDS011;46978;50.288;28.624;2023-02-28T05:15:34;9.42;;;6.79;;
60336;SDS011;46978;50.288;28.624;2023-02-28T05:16:35;12.20;;;6.85;;
60336;SDS011;46978;50.288;28.624;2023-02-28T05:17:37;13.50;;;6.69;;
60336;SDS011;46978;50.288;28.624;2023-02-28T05:18:38;14.29;;;8.36;;
60336;SDS011;46978;50.288;28.624;2023-02-28T05:19:40;13.54;;;7.84;;
60336;SDS011;46978;50.288;28.624;2023-02-28T05:20:42;16.64;;;8.54;;
60336;SDS011;46978;50.288;28.624;2023-02-28T05:21:52;23.18;;;12.31;;
60336;SDS011;46978;50.288;28.624;2023-02-28T05:22:51;23.38;;;12.25;;
60336;SDS011;46978;50.288;28.624;2023-02-28T05:23:53;21.74;;;12.91;;
60336;SDS011;46978;50.288;28.624;2023-02-28T05:24:55;28.11;;;15.74;;
60336;SDS011;46978;50.288;28.624;2023-02-28T05:25:57;31.79;;;17.24;;
60336;SDS011;46978;50.288;28.624;2023-02-28T05:26:59;32.67;;;18.30;;
60336;SDS011;46978;50.288;28.624;2023-02-28T05:28:00;30.35;;;16.48;;
60336;SDS011;46978;50.288;28.624;2023-02-28T05:29:02;44.76;;;23.64;;
60336;SDS011;46978;50.288;28.624;2023-02-28T05:30:04;70.12;;;33.26;;
60336;SDS011;46978;50.288;28.624;2023-02-28T05:31:08;67.20;;;38.11;;
60336;SDS011;46978;50.288;28.624;2023-02-28T05:32:12;65.88;;;35.83;;
60336;SDS011;46978;50.288;28.624;2023-02-28T05:33:15;71.61;;;37.23;;
60336;SDS011;46978;50.288;28.624;2023-02-28T05:34:17;62.16;;;32.69;;
60336;SDS011;46978;50.288;28.624;2023-02-28T05:35:18;30.39;;;18.38;;
60336;SDS011;46978;50.288;28.624;2023-02-28T05:36:20;37.63;;;21.47;;
60336;SDS011;46978;50.288;28.624;2023-02-28T05:37:22;29.08;;;16.15;;
60336;SDS011;46978;50.288;28.624;2023-02-28T05:38:24;28.12;;;15.67;;
60336;SDS011;46978;50.288;28.624;2023-02-28T05:39:25;23.06;;;13.85;;
60336;SDS011;46978;50.288;28.624;2023-02-28T05:40:27;21.99;;;12.72;;
60336;SDS011;46978;50.288;28.624;2023-02-28T05:41:29;21.86;;;12.72;;
60336;SDS011;46978;50.288;28.624;2023-02-28T05:42:30;24.56;;;13.20;;
60336;SDS011;46978;50.288;28.624;2023-02-28T05:43:32;24.34;;;12.18;;
60336;SDS011;46978;50.288;28.624;2023-02-28T05:44:35;24.97;;;14.27;;
60336;SDS011;46978;50.288;28.624;2023-02-28T05:45:37;21.36;;;13.12;;
60336;SDS011;46978;50.288;28.624;2023-02-28T05:46:39;17.59;;;10.11;;
60336;SDS011;46978;50.288;28.624;2023-02-28T05:47:41;19.40;;;11.21;;
60336;SDS011;46978;50.288;28.624;2023-02-28T05:48:42;18.97;;;10.02;;
60336;SDS011;46978;50.288;28.624;2023-02-28T05:49:47;18.98;;;10.99;;
60336;SDS011;46978;50.288;28.624;2023-02-28T05:50:49;21.23;;;12.27;;
60336;SDS011;46978;50.288;28.624;2023-02-28T05:51:51;14.11;;;7.93;;
60336;SDS011;46978;50.288;28.624;2023-02-28T05:52:52;16.01;;;8.71;;
60336;SDS011;46978;50.288;28.624;2023-02-28T05:53:54;13.61;;;8.96;;
60336;SDS011;46978;50.288;28.624;2023-02-28T05:54:55;18.71;;;10.04;;
60336;SDS011;46978;50.288;28.624;2023-02-28T05:55:57;19.26;;;9.83;;
60336;SDS011;46978;50.288;28.624;2023-02-28T05:57:00;17.80;;;9.89;;
60336;SDS011;46978;50.288;28.624;2023-02-28T05:58:01;18.26;;;10.95;;
60336;SDS011;46978;50.288;28.624;2023-02-28T05:59:03;17.58;;;9.56;;
60336;SDS011;46978;50.288;28.624;2023-02-28T06:00:05;14.55;;;8.57;;
60336;SDS011;46978;50.288;28.624;2023-02-28T06:01:30;18.31;;;11.25;;
60336;SDS011;46978;50.288;28.624;2023-02-28T06:02:28;22.10;;;11.82;;
60336;SDS011;46978;50.288;28.624;2023-02-28T06:03:29;21.61;;;11.41;;
60336;SDS011;46978;50.288;28.624;2023-02-28T06:04:31;22.41;;;12.01;;
60336;SDS011;46978;50.288;28.624;2023-02-28T06:05:33;19.51;;;10.13;;
60336;SDS011;46978;50.288;28.624;2023-02-28T06:06:35;16.33;;;9.36;;
60336;SDS011;46978;50.288;28.624;2023-02-28T06:07:37;15.51;;;8.71;;
60336;SDS011;46978;50.288;28.624;2023-02-28T06:08:38;18.84;;;10.42;;
60336;SDS011;46978;50.288;28.624;2023-02-28T06:09:40;24.05;;;12.11;;
60336;SDS011;46978;50.288;28.624;2023-02-28T06:10:41;24.84;;;12.02;;
60336;SDS011;46978;50.288;28.624;2023-02-28T06:11:43;23.69;;;11.80;;
60336;SDS011;46978;50.288;28.624;2023-02-28T06:12:45;17.11;;;8.94;;
60336;SDS011;46978;50.288;28.624;2023-02-28T06:13:47;22.15;;;10.59;;
60336;SDS011;46978;50.288;28.624;2023-02-28T06:14:48;24.22;;;11.41;;
60336;SDS011;46978;50.288;28.624;2023-02-28T06:15:50;30.11;;;14.44;;
60336;SDS011;46978;50.288;28.624;2023-02-28T06:16:52;35.08;;;15.49;;
60336;SDS011;46978;50.288;28.624;2023-02-28T06:17:53;18.56;;;8.74;;
60336;SDS011;46978;50.288;28.624;2023-02-28T06:18:57;24.92;;;11.56;;
60336;SDS011;46978;50.288;28.624;2023-02-28T06:19:59;15.67;;;8.28;;
60336;SDS011;46978;50.288;28.624;2023-02-28T06:21:01;18.41;;;9.64;;
60336;SDS011;46978;50.288;28.624;2023-02-28T06:22:02;18.14;;;10.56;;
60336;SDS011;46978;50.288;28.624;2023-02-28T06:23:04;16.83;;;9.46;;
60336;SDS011;46978;50.288;28.624;2023-02-28T06:24:06;16.24;;;7.85;;
60336;SDS011;46978;50.288;28.624;2023-02-28T06:25:09;14.65;;;8.29;;
60336;SDS011;46978;50.288;28.624;2023-02-28T06:26:12;14.69;;;7.85;;
60336;SDS011;46978;50.288;28.624;2023-02-28T06:27:13;12.91;;;6.86;;
60336;SDS011;46978;50.288;28.624;2023-02-28T06:28:15;13.26;;;8.11;;
60336;SDS011;46978;50.288;28.624;2023-02-28T06:29:17;10.57;;;6.11;;
60336;SDS011;46978;50.288;28.624;2023-02-28T06:30:19;12.05;;;6.47;;
60336;SDS011;46978;50.288;28.624;2023-02-28T06:31:21;12.21;;;6.91;;
60336;SDS011;46978;50.288;28.624;2023-02-28T06:32:23;15.07;;;8.87;;
60336;SDS011;46978;50.288;28.624;2023-02-28T06:33:24;13.29;;;7.86;;
60336;SDS011;46978;50.288;28.624;2023-02-28T06:34:26;11.22;;;7.16;;
60336;SDS011;46978;50.288;28.624;2023-02-28T06:35:28;11.55;;;7.21;;
60336;SDS011;46978;50.288;28.624;2023-02-28T06:36:29;19.81;;;10.36;;
60336;SDS011;46978;50.288;28.624;2023-02-28T06:37:32;15.45;;;8.95;;
60336;SDS011;46978;50.288;28.624;2023-02-28T06:38:33;15.08;;;9.14;;
60336;SDS011;46978;50.288;28.624;2023-02-28T06:39:35;13.81;;;7.83;;
60336;SDS011;46978;50.288;28.624;2023-02-28T06:40:37;16.56;;;8.54;;
60336;SDS011;46978;50.288;28.624;2023-02-28T06:41:39;12.26;;;8.17;;
60336;SDS011;46978;50.288;28.624;2023-02-28T06:42:41;18.12;;;10.64;;
60336;SDS011;46978;50.288;28.624;2023-02-28T06:43:43;17.46;;;9.76;;
60336;SDS011;46978;50.288;28.624;2023-02-28T06:44:45;17.30;;;10.08;;